Time;durP1;ratioP1;P1;durP2;ratioP2;P2;SDS_P1;SDS_P2;PMS_P1;PMS_P2;Temp;Humidity;BMP_temperature;BMP_pressure;BME280_temperature;BME280_humidity;BME280_pressure;Samples;Min_cycle;Max_cycle;Signal;HPM_P1;HPM_P2
2023/10/17 00:00:51;;;;;;;14.48;6.43;;;;;;;7.49;100.00;101992.09;4998152;28;20022;-54
2023/10/17 00:03:16;;;;;;;8.98;6.25;;;;;;;7.46;100.00;101987.81;4995995;28;20019;-55
2023/10/17 00:05:42;;;;;;;9.77;6.45;;;;;;;7.44;100.00;101994.94;5000747;28;20030;-53
2023/10/17 00:08:09;;;;;;;8.43;6.35;;;;;;;7.44;100.00;101994.94;4993746;28;20019;-55
2023/10/17 00:10:44;;;;;;;7.78;5.88;;;;;;;7.44;100.00;101989.63;4998531;28;20030;-52
2023/10/17 00:13:38;;;;;;;9.60;6.35;;;;;;;7.42;100.00;101988.84;4996040;28;20037;-54
2023/10/17 00:16:08;;;;;;;9.90;6.20;;;;;;;7.40;100.00;101983.63;4997121;28;20084;-54
2023/10/17 00:18:33;;;;;;;10.40;6.18;;;;;;;7.39;100.00;101981.94;4996877;28;20460;-55
2023/10/17 00:21:10;;;;;;;9.15;6.13;;;;;;;7.40;100.00;101988.06;4996069;28;20103;-53
2023/10/17 00:23:36;;;;;;;9.02;6.30;;;;;;;7.38;100.00;101977.56;4997464;28;20034;-55
2023/10/17 00:26:04;;;;;;;11.32;6.40;;;;;;;7.38;100.00;101982.00;4994412;28;20353;-53
2023/10/17 00:28:30;;;;;;;9.00;6.10;;;;;;;7.37;100.00;101981.13;4995414;28;20487;-53
2023/10/17 00:30:55;;;;;;;10.38;5.95;;;;;;;7.37;100.00;101973.19;4997066;28;20034;-55
2023/10/17 00:33:23;;;;;;;8.35;5.65;;;;;;;7.37;100.00;101972.34;4998025;28;20106;-55
2023/10/17 00:35:49;;;;;;;11.55;6.70;;;;;;;7.35;100.00;101961.00;4997815;28;20033;-54
2023/10/17 00:38:15;;;;;;;9.77;6.50;;;;;;;7.34;100.00;101964.56;4999583;28;20031;-53
2023/10/17 00:40:49;;;;;;;9.25;6.18;;;;;;;7.31;100.00;101951.47;5001256;28;20030;-55
2023/10/17 00:43:14;;;;;;;9.43;5.75;;;;;;;7.29;100.00;101951.53;5011625;28;20073;-55
2023/10/17 00:45:41;;;;;;;12.05;6.28;;;;;;;7.28;100.00;101954.25;4995866;28;20420;-53
2023/10/17 00:48:34;;;;;;;11.43;6.47;;;;;;;7.27;100.00;101963.97;4996135;28;20064;-52
2023/10/17 00:51:07;;;;;;;9.07;6.32;;;;;;;7.26;100.00;101966.69;4997008;28;20038;-52
2023/10/17 00:53:32;;;;;;;12.65;6.28;;;;;;;7.24;100.00;101961.47;4997406;28;20046;-51
2023/10/17 00:55:59;;;;;;;10.70;6.68;;;;;;;7.23;100.00;101963.25;5001573;28;20086;-53
2023/10/17 00:58:25;;;;;;;9.20;6.53;;;;;;;7.22;100.00;101958.88;4999936;28;20026;-52
2023/10/17 01:01:09;;;;;;;9.82;6.78;;;;;;;7.23;100.00;101970.34;4994936;28;20485;-52
2023/10/17 01:03:43;;;;;;;8.40;6.95;;;;;;;7.22;100.00;101958.88;4999111;28;20053;-53
2023/10/17 01:06:13;;;;;;;12.68;7.13;;;;;;;7.19;100.00;101961.69;4996589;28;20038;-55
2023/10/17 01:08:46;;;;;;;9.43;6.95;;;;;;;7.19;100.00;101969.63;5002600;28;20087;-53
2023/10/17 01:11:16;;;;;;;11.93;7.60;;;;;;;7.19;100.00;101963.47;5000833;28;20453;-56
2023/10/17 01:13:42;;;;;;;12.20;7.28;;;;;;;7.18;100.00;101973.19;5012791;28;20433;-53
2023/10/17 01:16:10;;;;;;;11.75;7.18;;;;;;;7.17;100.00;101974.09;5005340;28;20023;-54
2023/10/17 01:18:35;;;;;;;10.45;7.07;;;;;;;7.18;100.00;101973.19;4998637;28;20031;-52
2023/10/17 01:21:00;;;;;;;14.50;7.30;;;;;;;7.18;100.00;101970.53;4996723;28;20061;-54
2023/10/17 01:23:29;;;;;;;13.82;7.00;;;;;;;7.18;100.00;101964.41;4998972;28;20035;-52
2023/10/17 01:25:56;;;;;;;12.90;7.00;;;;;;;7.17;100.00;101960.03;4996290;28;20495;-51
2023/10/17 01:28:22;;;;;;;10.25;7.22;;;;;;;7.17;100.00;101960.88;4997454;28;20035;-51
2023/10/17 01:30:48;;;;;;;11.35;7.25;;;;;;;7.16;100.00;101945.97;5004318;28;20057;-51
2023/10/17 01:33:13;;;;;;;9.27;7.10;;;;;;;7.17;100.00;101944.19;5001352;28;20480;-51
2023/10/17 01:35:43;;;;;;;11.20;6.82;;;;;;;7.16;100.00;101943.34;4999490;28;20029;-55
2023/10/17 01:38:09;;;;;;;9.90;6.97;;;;;;;7.15;100.00;101944.25;5000474;28;20117;-51
2023/10/17 01:40:34;;;;;;;8.95;6.97;;;;;;;7.15;100.00;101959.25;4997892;28;20432;-51
2023/10/17 01:43:00;;;;;;;13.25;7.47;;;;;;;7.15;100.00;101960.09;4996969;28;20029;-52
2023/10/17 01:45:26;;;;;;;11.52;6.97;;;;;;;7.14;100.00;101949.59;5002510;28;20038;-53
2023/10/17 01:47:52;;;;;;;11.48;7.30;;;;;;;7.12;100.00;101948.81;5003881;28;20076;-55
2023/10/17 01:50:21;;;;;;;9.80;6.43;;;;;;;7.10;100.00;101935.66;4998314;28;20061;-55
2023/10/17 01:52:47;;;;;;;9.02;6.68;;;;;;;7.09;100.00;101933.94;4998270;28;20065;-51
2023/10/17 01:55:15;;;;;;;10.23;7.25;;;;;;;7.08;100.00;101928.72;4998389;28;20052;-53
2023/10/17 01:57:43;;;;;;;11.13;6.50;;;;;;;7.09;100.00;101923.38;4998398;28;20030;-53
2023/10/17 02:00:29;;;;;;;9.30;6.63;;;;;;;7.08;100.00;101928.72;5000426;28;20079;-52
2023/10/17 02:02:55;;;;;;;10.57;6.80;;;;;;;7.07;100.00;101922.59;4999661;28;20404;-55
2023/10/17 02:05:20;;;;;;;11.55;6.82;;;;;;;7.08;100.00;101916.38;4997262;28;20097;-55
2023/10/17 02:07:46;;;;;;;10.15;6.85;;;;;;;7.06;100.00;101909.44;5004309;28;20430;-54
2023/10/17 02:10:14;;;;;;;9.45;6.72;;;;;;;7.05;100.00;101905.97;4996486;28;20041;-56
2023/10/17 02:12:41;;;;;;;11.55;6.95;;;;;;;7.04;100.00;101902.47;4994299;28;20038;-51
2023/10/17 02:15:08;;;;;;;9.65;7.20;;;;;;;7.05;100.00;101903.31;5003146;28;20091;-54
2023/10/17 02:17:35;;;;;;;9.43;7.07;;;;;;;7.04;100.00;101896.31;4999548;28;20030;-54
2023/10/17 02:20:08;;;;;;;11.82;6.72;;;;;;;7.02;100.00;101891.09;5004447;28;20018;-55
2023/10/17 02:22:39;;;;;;;13.77;7.00;;;;;;;7.03;100.00;101886.69;4997999;28;20026;-55
2023/10/17 02:25:05;;;;;;;11.00;7.55;;;;;;;7.02;100.00;101891.09;4996656;28;20023;-56
2023/10/17 02:27:30;;;;;;;11.45;7.43;;;;;;;7.00;100.00;101890.31;4999213;28;20042;-53
2023/10/17 02:29:57;;;;;;;10.85;7.30;;;;;;;7.00;100.00;101889.47;5001338;28;20472;-53
2023/10/17 02:32:22;;;;;;;10.48;7.13;;;;;;;6.98;100.00;101897.44;5001553;28;20091;-54
2023/10/17 02:34:48;;;;;;;10.77;7.30;;;;;;;6.98;100.00;101904.53;4997100;28;20031;-52
2023/10/17 02:37:18;;;;;;;13.80;8.13;;;;;;;6.97;100.00;101902.78;4996649;28;20056;-51
2023/10/17 02:39:43;;;;;;;14.68;7.80;;;;;;;6.97;100.00;101908.94;5000189;28;20026;-56
2023/10/17 02:42:08;;;;;;;10.45;6.68;;;;;;;6.96;100.00;101903.72;4994800;28;20033;-52
2023/10/17 02:44:39;;;;;;;11.60;7.50;;;;;;;6.96;100.00;101909.88;4997588;28;20503;-54
2023/10/17 02:47:10;;;;;;;14.65;8.02;;;;;;;6.94;100.00;101911.69;4998405;28;20057;-53
2023/10/17 02:49:38;;;;;;;11.95;7.85;;;;;;;6.95;100.00;101907.28;4997645;28;20030;-55
2023/10/17 02:52:05;;;;;;;11.68;7.47;;;;;;;6.94;100.00;101900.28;4997476;28;20094;-53
2023/10/17 02:54:34;;;;;;;9.90;7.28;;;;;;;6.93;100.00;101907.38;4997005;28;20145;-52
2023/10/17 02:56:59;;;;;;;;;;;;;;;7.02;100.00;101904.28;4995256;28;20031;-52
2023/10/17 02:59:25;;;;;;;10.27;6.90;;;;;;;6.95;100.00;101899.38;5000371;28;19920;-55
2023/10/17 03:01:53;;;;;;;11.68;7.35;;;;;;;6.94;100.00;101890.56;4998567;28;20022;-55
2023/10/17 03:04:23;;;;;;;13.38;7.68;;;;;;;6.92;100.00;101889.78;4994229;28;20037;-55
2023/10/17 03:06:54;;;;;;;15.88;8.05;;;;;;;6.90;100.00;101885.53;4997462;28;20457;-53
2023/10/17 03:11:51;;;;;;;11.98;8.18;;;;;;;6.87;100.00;101889.13;4997779;28;20030;-55
2023/10/17 03:14:23;;;;;;;12.18;7.75;;;;;;;6.84;100.00;101889.28;4996547;28;20497;-53
2023/10/17 03:16:55;;;;;;;13.30;8.30;;;;;;;6.85;100.00;101893.63;5000990;28;20050;-56
2023/10/17 03:19:27;;;;;;;16.90;8.40;;;;;;;6.82;100.00;101893.75;5001282;28;20053;-54
2023/10/17 03:21:58;;;;;;;14.07;7.93;;;;;;;6.79;100.00;101892.09;4997834;28;20408;-52
2023/10/17 03:24:38;;;;;;;13.50;8.75;;;;;;;6.80;100.00;101885.06;5018221;28;20036;-51
2023/10/17 03:27:04;;;;;;;12.98;8.63;;;;;;;6.81;100.00;101889.41;5001916;28;20052;-55
2023/10/17 03:29:34;;;;;;;11.57;9.02;;;;;;;6.79;100.00;101900.03;5000658;28;20080;-56
2023/10/17 03:32:03;;;;;;;11.63;8.35;;;;;;;6.78;100.00;101905.41;4996578;28;20031;-56
2023/10/17 03:34:34;;;;;;;15.77;9.05;;;;;;;6.79;100.00;101904.47;4997639;28;20520;-52
2023/10/17 03:37:26;;;;;;;18.05;9.40;;;;;;;6.77;100.00;101904.53;4999022;28;20026;-52
2023/10/17 03:39:51;;;;;;;13.73;8.48;;;;;;;6.79;100.00;101905.31;5001761;28;20103;-52
2023/10/17 03:42:31;;;;;;;13.38;9.05;;;;;;;6.79;100.00;101902.66;4996736;28;20038;-53
2023/10/17 03:44:56;;;;;;;15.00;8.80;;;;;;;6.81;100.00;101906.13;4997480;28;20495;-55
2023/10/17 03:47:22;;;;;;;14.43;9.18;;;;;;;6.83;100.00;101911.34;5006031;28;20041;-55
2023/10/17 03:49:48;;;;;;;12.98;8.57;;;;;;;6.81;100.00;101905.25;5013766;28;20026;-54
2023/10/17 03:52:16;;;;;;;11.07;8.57;;;;;;;6.79;100.00;101897.38;5001750;28;20080;-53
2023/10/17 03:54:44;;;;;;;14.07;9.90;;;;;;;6.77;100.00;101901.88;4999834;28;20151;-52
2023/10/17 03:57:15;;;;;;;17.05;9.30;;;;;;;6.79;100.00;101909.75;5010341;28;20114;-51
2023/10/17 03:59:42;;;;;;;14.13;9.18;;;;;;;6.77;100.00;101907.16;4994549;28;20101;-51
2023/10/17 04:02:21;;;;;;;13.48;9.05;;;;;;;6.78;100.00;101902.75;4998409;28;20026;-51
2023/10/17 04:04:53;;;;;;;13.95;10.50;;;;;;;6.77;100.00;101906.31;4993481;28;20061;-50
2023/10/17 04:07:21;;;;;;;13.68;9.00;;;;;;;6.75;100.00;101906.38;4997900;28;20034;-51
2023/10/17 04:09:54;;;;;;;13.07;10.48;;;;;;;6.77;100.00;101901.03;4995556;28;20022;-54
2023/10/17 04:12:22;;;;;;;15.90;9.82;;;;;;;6.76;100.00;101899.31;4999075;28;20376;-53
2023/10/17 04:14:54;;;;;;;15.50;10.57;;;;;;;6.76;100.00;101907.22;4999321;28;20034;-52
2023/10/17 04:17:24;;;;;;;14.55;10.40;;;;;;;6.76;100.00;101910.75;4996200;28;20130;-53
2023/10/17 04:19:49;;;;;;;16.20;10.98;;;;;;;6.74;100.00;101899.38;4994015;28;20060;-52
2023/10/17 04:22:16;;;;;;;17.45;11.18;;;;;;;6.75;100.00;101897.63;4998894;28;20532;-49
2023/10/17 04:24:47;;;;;;;15.65;11.30;;;;;;;6.74;100.00;101906.44;4998138;28;20040;-51
2023/10/17 04:29:38;;;;;;;15.30;10.73;;;;;;;6.72;100.00;101911.78;4998472;28;20030;-53
2023/10/17 04:32:13;;;;;;;18.23;11.18;;;;;;;6.72;100.00;101914.44;4995656;28;20388;-53
2023/10/17 04:34:45;;;;;;;19.15;11.70;;;;;;;6.72;100.00;101910.94;5000877;28;20025;-51
2023/10/17 04:37:10;;;;;;;16.00;11.50;;;;;;;6.72;100.00;101909.16;4995928;28;20065;-50
2023/10/17 04:39:36;;;;;;;19.25;11.02;;;;;;;6.72;100.00;101909.16;4996865;28;20026;-53
2023/10/17 04:42:06;;;;;;;15.35;11.93;;;;;;;6.71;100.00;101912.72;4996238;28;20533;-54
2023/10/17 04:44:34;;;;;;;17.23;10.68;;;;;;;6.71;100.00;101915.38;5001093;28;20034;-50
2023/10/17 04:49:31;;;;;;;15.75;11.52;;;;;;;6.71;100.00;101910.09;4997202;28;20407;-53
2023/10/17 04:52:06;;;;;;;18.65;11.38;;;;;;;6.73;100.00;101907.34;5000257;28;20366;-50
2023/10/17 04:57:05;;;;;;;18.45;11.70;;;;;;;6.70;100.00;101904.88;4996821;28;20073;-50
2023/10/17 06:18:49;;;;;;;22.23;15.02;;;;;;;6.55;100.00;101878.22;5014629;28;20062;-55
2023/10/17 06:21:18;;;;;;;21.10;14.45;;;;;;;6.56;100.00;101885.22;5008490;28;20542;-54
2023/10/17 06:26:47;;;;;;;21.73;15.65;;;;;;;6.57;100.00;101886.06;4996246;28;20048;-53
2023/10/17 06:34:37;;;;;;;18.40;14.52;;;;;;;6.58;100.00;101885.16;4994920;28;20042;-51
2023/10/17 06:37:07;;;;;;;20.13;15.63;;;;;;;6.58;100.00;101883.34;5002674;28;20079;-51
2023/10/17 06:39:45;;;;;;;24.38;16.10;;;;;;;6.57;100.00;101889.56;4997938;28;20030;-51
2023/10/17 06:42:31;;;;;;;19.92;16.00;;;;;;;6.60;100.00;101893.84;4993880;28;20072;-52
2023/10/17 06:45:10;;;;;;;24.02;16.45;;;;;;;6.61;100.00;101892.91;4999080;28;20597;-52
2023/10/17 06:47:41;;;;;;;22.38;16.13;;;;;;;6.63;100.00;101899.00;5003572;28;20573;-51
2023/10/17 06:55:38;;;;;;;23.58;17.00;;;;;;;6.66;100.00;101905.00;4995436;28;20128;-54
2023/10/17 06:58:09;;;;;;;21.92;16.58;;;;;;;6.68;100.00;101902.31;4994605;28;20033;-52
2023/10/17 07:00:43;;;;;;;23.52;17.02;;;;;;;6.69;100.00;101909.28;4995489;28;20045;-55
2023/10/17 07:03:09;;;;;;;20.92;16.65;;;;;;;6.69;100.00;101909.28;4992608;28;20030;-53
2023/10/17 07:05:37;;;;;;;21.05;16.73;;;;;;;6.73;100.00;101915.28;5000402;28;20418;-54
2023/10/17 07:08:03;;;;;;;22.45;16.65;;;;;;;6.72;100.00;101909.16;4998134;28;20029;-54
2023/10/17 07:13:39;;;;;;;23.08;17.45;;;;;;;6.77;100.00;101893.97;5007296;28;20499;-51
2023/10/17 07:16:11;;;;;;;21.90;16.25;;;;;;;6.76;100.00;101894.91;5001550;28;20032;-51
2023/10/17 07:18:51;;;;;;;21.85;16.45;;;;;;;6.76;100.00;101900.19;4999691;28;20065;-54
2023/10/17 07:21:23;;;;;;;21.75;16.10;;;;;;;6.76;100.00;101892.25;4999278;28;20041;-51
2023/10/17 07:23:49;;;;;;;20.15;15.82;;;;;;;6.76;100.00;101889.63;5000626;28;20052;-53
2023/10/17 07:26:24;;;;;;;18.67;15.70;;;;;;;6.79;100.00;101885.97;4998723;28;20488;-54
2023/10/17 07:28:52;;;;;;;19.33;15.13;;;;;;;6.82;100.00;101885.84;4997712;28;20396;-52
2023/10/17 07:31:22;;;;;;;22.50;15.75;;;;;;;6.85;100.00;101886.56;4995999;28;20025;-53
2023/10/17 07:33:53;;;;;;;;;;;;;;;6.94;100.00;101889.72;5000366;28;20091;-54
2023/10/17 07:36:18;;;;;;;21.30;15.25;;;;;;;6.93;100.00;101890.63;4998766;28;19912;-52
2023/10/17 07:38:44;;;;;;;20.10;15.18;;;;;;;6.96;100.00;101895.78;4992714;28;20069;-52
2023/10/17 07:41:13;;;;;;;20.23;15.43;;;;;;;6.99;100.00;101900.94;4995824;28;20061;-52
2023/10/17 07:43:44;;;;;;;19.92;14.80;;;;;;;7.02;100.00;101900.81;4995496;28;20033;-54
2023/10/17 07:46:28;;;;;;;20.65;14.43;;;;;;;7.06;100.00;101899.75;4994156;28;20090;-51
2023/10/17 07:49:03;;;;;;;20.13;15.25;;;;;;;7.07;100.00;101890.88;4993340;28;20125;-51
2023/10/17 07:51:29;;;;;;;18.98;14.07;;;;;;;7.08;100.00;101895.25;4991245;28;20030;-54
2023/10/17 07:53:55;;;;;;;17.48;13.60;;;;;;;7.11;100.00;101896.88;4994320;28;20034;-53
2023/10/17 07:56:21;;;;;;;23.33;14.20;;;;;;;7.11;100.00;101892.47;4994378;28;20380;-52
2023/10/17 07:59:04;;;;;;;18.48;14.32;;;;;;;7.10;100.00;101898.69;4993139;28;20528;-51
2023/10/17 08:01:38;;;;;;;19.55;13.93;;;;;;;7.11;100.00;101900.41;4997190;28;20376;-54
2023/10/17 08:06:58;;;;;;;20.52;13.55;;;;;;;7.15;100.00;101887.91;4981289;28;20568;-52
2023/10/17 08:11:52;;;;;;;18.88;13.60;;;;;;;7.23;100.00;101883.13;4999665;28;20073;-54
2023/10/17 08:14:40;;;;;;;16.70;13.23;;;;;;;7.33;100.00;101894.16;4993699;28;20030;-54
2023/10/17 08:17:06;;;;;;;20.40;13.25;;;;;;;7.45;100.00;101895.34;4996188;28;20453;-52
2023/10/17 08:19:36;;;;;;;14.80;12.45;;;;;;;7.56;100.00;101880.72;4996903;28;20053;-56
2023/10/17 08:29:49;;;;;;;13.93;11.23;;;;;;;8.09;100.00;101881.69;4996729;28;20044;-53
2023/10/17 08:32:38;;;;;;;13.27;10.98;;;;;;;8.20;100.00;101888.22;4998095;28;20456;-52
2023/10/17 08:35:04;;;;;;;15.75;10.70;;;;;;;8.30;100.00;101882.38;4995052;28;20045;-52
2023/10/17 08:37:30;;;;;;;13.95;9.70;;;;;;;8.43;100.00;101879.16;5001377;28;20023;-51
2023/10/17 08:39:57;;;;;;;12.30;10.13;;;;;;;8.50;100.00;101880.56;4998621;28;20468;-54
2023/10/17 08:44:54;;;;;;;12.82;9.75;;;;;;;8.66;100.00;101875.31;4998423;28;20037;-54
2023/10/17 08:47:21;;;;;;;10.82;9.05;;;;;;;8.72;100.00;101880.28;4996438;28;20042;-55
2023/10/17 08:49:50;;;;;;;12.07;9.40;;;;;;;8.77;100.00;101880.91;4996918;28;20074;-54
2023/10/17 08:52:27;;;;;;;12.65;9.30;;;;;;;8.83;100.00;101880.59;4995459;28;20064;-55
2023/10/17 08:54:53;;;;;;;12.32;8.65;;;;;;;8.89;100.00;101884.69;4996872;28;20065;-54
2023/10/17 08:57:19;;;;;;;12.55;8.35;;;;;;;8.97;100.00;101889.59;5007873;28;20021;-52
2023/10/17 09:02:16;;;;;;;11.07;7.57;;;;;;;9.14;98.48;101884.25;5006407;28;20507;-52
2023/10/17 09:04:49;;;;;;;10.48;7.47;;;;;;;9.29;98.20;101894.97;5004994;28;20029;-54
2023/10/17 09:07:31;;;;;;;8.95;7.53;;;;;;;9.44;97.17;101889.69;5004811;28;20100;-52
2023/10/17 09:09:56;;;;;;;8.60;6.50;;;;;;;9.62;95.30;101884.31;4995907;28;20046;-51
2023/10/17 09:12:24;;;;;;;11.32;6.85;;;;;;;9.76;94.47;101878.25;4992634;28;20121;-53
2023/10/17 09:14:52;;;;;;;10.25;7.15;;;;;;;9.94;94.89;101882.50;4996500;28;20113;-55
2023/10/17 09:19:51;;;;;;;8.52;6.40;;;;;;;10.17;90.17;101885.59;4991351;28;20179;-51
2023/10/17 09:22:38;;;;;;;8.35;6.32;;;;;;;10.29;89.80;101878.72;4997004;28;20033;-54
2023/10/17 09:25:15;;;;;;;6.68;5.95;;;;;;;10.50;89.65;101881.94;4994848;28;20461;-54
2023/10/17 09:27:41;;;;;;;10.20;6.10;;;;;;;10.68;88.03;101886.16;4999274;28;20022;-52
2023/10/17 09:30:10;;;;;;;7.85;5.70;;;;;;;10.83;86.07;101886.19;5002790;28;20053;-55
2023/10/17 09:32:37;;;;;;;;;;;;;;;10.97;91.44;101883.50;4996630;28;20072;-53
2023/10/17 09:35:13;;;;;;;7.82;5.30;;;;;;;11.13;83.58;101882.56;5001289;28;19917;-52
2023/10/17 09:37:43;;;;;;;7.72;5.20;;;;;;;11.30;82.65;101885.88;4997471;28;20041;-51
2023/10/17 09:40:13;;;;;;;8.88;5.80;;;;;;;11.57;85.44;101884.22;4999369;28;20073;-51
2023/10/17 09:42:47;;;;;;;9.32;5.38;;;;;;;11.69;82.33;101886.09;4997581;28;20034;-52
2023/10/17 09:45:14;;;;;;;9.30;5.28;;;;;;;11.91;80.65;101890.91;4996362;28;20046;-52
2023/10/17 09:47:44;;;;;;;7.75;4.82;;;;;;;12.01;78.33;101892.00;4998848;28;20371;-54
2023/10/17 09:50:18;;;;;;;10.80;4.88;;;;;;;12.18;78.11;101874.06;4996811;28;20039;-50
2023/10/17 09:52:51;;;;;;;6.75;4.40;;;;;;;12.24;77.02;101881.66;4998699;28;20057;-52
2023/10/17 09:55:17;;;;;;;6.85;4.65;;;;;;;12.34;76.51;101882.72;4995503;28;20030;-55
2023/10/17 09:57:52;;;;;;;7.90;4.60;;;;;;;12.40;75.67;101886.78;4996955;28;20054;-53
2023/10/17 10:00:46;;;;;;;7.07;4.53;;;;;;;12.55;77.72;101893.72;4999408;28;20442;-51
2023/10/17 10:03:13;;;;;;;9.38;4.03;;;;;;;12.59;73.03;101881.91;5004148;28;20113;-51
2023/10/17 10:05:39;;;;;;;7.80;4.95;;;;;;;12.80;73.67;101888.53;4998713;28;20038;-53
2023/10/17 10:08:32;;;;;;;6.32;4.50;;;;;;;12.89;74.86;101893.19;4998853;28;20080;-55
2023/10/17 10:10:57;;;;;;;8.73;4.15;;;;;;;12.92;70.04;101899.19;4999140;28;20116;-52
2023/10/17 10:13:24;;;;;;;9.35;4.05;;;;;;;12.95;68.66;101892.78;4997893;28;20117;-52
2023/10/17 10:15:59;;;;;;;9.70;4.00;;;;;;;13.04;70.67;101896.63;4996298;28;20038;-54
2023/10/17 10:18:51;;;;;;;9.02;3.80;;;;;;;13.20;72.88;101886.56;4996709;28;20038;-55
2023/10/17 10:21:16;;;;;;;7.32;3.85;;;;;;;13.32;68.47;101876.88;5002390;28;20034;-54
2023/10/17 10:23:42;;;;;;;6.72;3.50;;;;;;;13.41;68.48;101870.88;4999060;28;21889;-54
2023/10/17 10:26:19;;;;;;;4.30;3.42;;;;;;;13.46;68.28;101874.06;4998245;28;20026;-55
2023/10/17 10:28:48;;;;;;;4.45;3.50;;;;;;;13.47;65.82;101866.91;5002470;28;20103;-52
2023/10/17 10:31:22;;;;;;;5.13;3.22;;;;;;;13.55;67.40;101863.69;5000776;28;20506;-52
2023/10/17 10:33:49;;;;;;;4.78;3.45;;;;;;;13.60;65.57;101859.69;5005114;28;20061;-54
2023/10/17 10:36:22;;;;;;;14.15;4.00;;;;;;;13.66;65.08;101861.94;5001211;28;20412;-55
2023/10/17 10:38:47;;;;;;;7.25;3.58;;;;;;;13.68;62.93;101864.50;4999404;28;20018;-53
2023/10/17 10:41:17;;;;;;;7.32;3.30;;;;;;;13.77;63.60;101852.28;4993568;28;20544;-54
2023/10/17 10:43:44;;;;;;;6.15;3.30;;;;;;;13.80;61.60;101858.22;4996374;28;20053;-55
2023/10/17 10:46:10;;;;;;;6.20;3.30;;;;;;;13.84;60.89;101845.53;5000923;28;20053;-53
2023/10/17 10:48:38;;;;;;;5.10;3.35;;;;;;;13.81;61.62;101846.59;4999142;28;20041;-55
2023/10/17 10:51:04;;;;;;;4.70;3.55;;;;;;;13.99;61.37;101840.84;4998409;28;20512;-54
2023/10/17 10:53:32;;;;;;;8.00;3.60;;;;;;;14.16;62.36;101844.94;5006932;28;20060;-55
2023/10/17 10:56:11;;;;;;;6.60;3.17;;;;;;;14.24;63.15;101838.03;5007663;28;20033;-54
2023/10/17 10:58:47;;;;;;;7.40;3.75;;;;;;;14.34;62.64;101826.59;4996947;28;20156;-54
2023/10/17 11:01:14;;;;;;;8.15;3.60;;;;;;;14.31;59.70;101832.22;4996403;28;20026;-51
2023/10/17 11:03:46;;;;;;;8.05;3.67;;;;;;;14.40;62.14;101823.47;5002345;28;20477;-53
2023/10/17 11:06:12;;;;;;;7.15;3.53;;;;;;;14.32;58.46;101820.53;4995408;28;20022;-56
2023/10/17 11:08:46;;;;;;;8.82;3.50;;;;;;;14.32;59.38;101817.88;4998167;28;20384;-53
2023/10/17 11:11:19;;;;;;;4.95;3.15;;;;;;;14.37;59.52;101821.91;4994701;28;20018;-55
2023/10/17 11:13:52;;;;;;;4.63;3.03;;;;;;;14.49;60.89;101814.75;5004310;28;20097;-53
2023/10/17 11:16:21;;;;;;;6.22;2.78;;;;;;;14.58;59.02;101819.38;5003967;28;20029;-54
2023/10/17 11:18:47;;;;;;;5.43;2.70;;;;;;;14.64;58.48;101818.09;5000091;28;20038;-54
2023/10/17 11:21:14;;;;;;;4.47;2.85;;;;;;;14.51;56.07;101810.13;4995467;28;20484;-52
2023/10/17 11:23:50;;;;;;;4.15;2.70;;;;;;;14.54;59.55;101809.06;4993394;28;20034;-53
2023/10/17 11:26:19;;;;;;;5.55;2.83;;;;;;;14.52;55.86;101798.47;4997882;28;20032;-52
2023/10/17 11:28:51;;;;;;;3.10;2.40;;;;;;;14.63;57.35;101789.63;4998511;28;20044;-52
2023/10/17 11:31:24;;;;;;;6.13;2.63;;;;;;;14.77;58.17;101788.53;4997008;28;20041;-55
2023/10/17 11:34:03;;;;;;;4.50;2.47;;;;;;;14.77;57.12;101784.06;4997564;28;20034;-54
2023/10/17 11:36:35;;;;;;;3.92;2.45;;;;;;;14.80;56.87;101785.63;5001059;28;20033;-52
2023/10/17 11:39:04;;;;;;;5.32;2.67;;;;;;;14.79;56.30;101781.25;4997594;28;20029;-54
2023/10/17 11:41:31;;;;;;;4.70;2.80;;;;;;;14.70;55.10;101776.63;4995090;28;20483;-53
2023/10/17 11:44:04;;;;;;;2.90;2.30;;;;;;;14.79;57.85;101767.88;4996009;28;20080;-54
2023/10/17 11:46:37;;;;;;;6.20;2.80;;;;;;;14.79;56.11;101779.44;4997203;28;20081;-51
2023/10/17 11:49:26;;;;;;;7.07;2.65;;;;;;;14.68;55.06;101774.06;4993889;28;20544;-55
2023/10/17 11:52:09;;;;;;;3.60;2.60;;;;;;;14.48;55.07;101778.28;4995727;28;20030;-53
2023/10/17 11:55:11;;;;;;;4.20;2.47;;;;;;;14.42;56.08;101776.09;4996200;28;20420;-52
2023/10/17 11:57:38;;;;;;;3.70;2.50;;;;;;;14.21;55.31;101783.97;4997512;28;20141;-54
2023/10/17 12:00:07;;;;;;;6.70;3.08;;;;;;;14.08;54.97;101786.72;4993392;28;20125;-55
2023/10/17 12:02:32;;;;;;;3.90;2.38;;;;;;;14.00;55.37;101794.47;4997449;28;20130;-52
2023/10/17 12:05:01;;;;;;;6.85;2.65;;;;;;;13.92;57.35;101789.69;4996366;28;20105;-55
2023/10/17 12:07:26;;;;;;;3.47;2.42;;;;;;;13.88;57.28;101783.75;4997495;28;20034;-55
2023/10/17 12:09:53;;;;;;;5.43;2.70;;;;;;;13.81;58.73;101782.50;5002251;28;20045;-54
2023/10/17 12:12:19;;;;;;;3.83;2.53;;;;;;;13.74;57.61;101781.28;4998327;28;20033;-54
2023/10/17 12:14:44;;;;;;;3.63;2.28;;;;;;;13.65;57.20;101763.28;4993573;28;20027;-54
2023/10/17 12:17:13;;;;;;;3.70;2.40;;;;;;;13.61;58.20;101751.13;4995391;28;20398;-53
2023/10/17 12:19:40;;;;;;;4.60;2.50;;;;;;;13.58;57.98;101754.03;4992850;28;20026;-54
2023/10/17 12:22:05;;;;;;;5.38;2.63;;;;;;;13.57;60.14;101741.63;4994722;28;20036;-51
2023/10/17 12:24:37;;;;;;;3.60;2.60;;;;;;;13.56;60.08;101746.13;5014886;28;20491;-54
2023/10/17 12:27:03;;;;;;;4.13;2.83;;;;;;;13.50;60.61;101736.75;4994730;28;20022;-53
2023/10/17 12:29:31;;;;;;;4.20;3.00;;;;;;;13.50;60.86;101730.56;4997860;28;20030;-55
2023/10/17 12:31:57;;;;;;;3.47;3.10;;;;;;;13.43;61.00;101724.00;4996812;28;20064;-53
2023/10/17 12:34:22;;;;;;;4.20;3.33;;;;;;;13.36;62.03;101714.75;4995212;28;20036;-54
2023/10/17 12:36:48;;;;;;;3.50;3.03;;;;;;;13.30;62.36;101711.53;4996469;28;20030;-52
2023/10/17 12:39:16;;;;;;;5.00;3.40;;;;;;;13.25;62.36;101697.66;4999829;28;20117;-55
2023/10/17 12:41:49;;;;;;;6.05;2.97;;;;;;;13.22;63.10;101695.25;4994251;28;20022;-54
2023/10/17 12:44:15;;;;;;;3.83;3.38;;;;;;;13.16;62.90;101681.53;4995140;28;20022;-54
2023/10/17 12:46:41;;;;;;;6.82;3.67;;;;;;;13.09;63.30;101676.63;4998397;28;20042;-55
2023/10/17 12:49:06;;;;;;;4.68;3.30;;;;;;;13.06;62.27;101679.53;4993567;28;20049;-55
2023/10/17 12:51:32;;;;;;;4.90;3.45;;;;;;;13.05;62.16;101674.31;4995857;28;20034;-53
2023/10/17 12:53:57;;;;;;;5.43;3.10;;;;;;;13.02;63.02;101669.19;4997762;28;20035;-54
2023/10/17 12:56:24;;;;;;;3.67;2.67;;;;;;;12.99;62.73;101662.28;4997715;28;20033;-55
2023/10/17 12:58:50;;;;;;;3.85;2.92;;;;;;;12.99;62.27;101664.94;5000543;28;20038;-54
2023/10/17 13:01:17;;;;;;;3.53;2.78;;;;;;;13.00;63.15;101663.13;4997396;28;20022;-55
2023/10/17 13:03:42;;;;;;;6.05;3.28;;;;;;;13.02;64.20;101656.69;5002687;28;20034;-52
2023/10/17 13:06:11;;;;;;;4.50;3.40;;;;;;;13.06;64.15;101660.00;5000550;28;20030;-52
2023/10/17 13:08:36;;;;;;;5.63;3.42;;;;;;;13.05;62.58;101671.63;4998018;28;20504;-54
2023/10/17 13:11:02;;;;;;;3.85;3.55;;;;;;;12.98;61.43;101663.25;5002630;28;20026;-54
2023/10/17 13:13:30;;;;;;;4.72;2.97;;;;;;;12.89;61.69;101662.09;4999387;28;20542;-54
2023/10/17 13:15:57;;;;;;;5.63;3.15;;;;;;;12.87;62.98;101652.50;5001352;28;20422;-54
2023/10/17 13:18:23;;;;;;;6.20;3.20;;;;;;;12.88;62.54;101656.88;5006466;28;20493;-54
2023/10/17 13:20:48;;;;;;;4.43;2.85;;;;;;;12.83;61.92;101657.22;5005963;28;20511;-54
2023/10/17 13:23:17;;;;;;;3.80;3.08;;;;;;;12.84;63.10;101652.72;5000742;28;20034;-51
2023/10/17 13:25:44;;;;;;;5.47;3.13;;;;;;;12.86;63.15;101658.81;5002553;28;20022;-53
2023/10/17 13:28:10;;;;;;;4.65;2.92;;;;;;;12.89;63.94;101653.22;5000214;28;20045;-55
2023/10/17 13:30:35;;;;;;;6.82;3.53;;;;;;;12.96;65.73;101657.19;4998438;28;20022;-51
2023/10/17 13:33:00;;;;;;;3.42;3.08;;;;;;;12.99;64.62;101662.28;5000620;28;20065;-54
2023/10/17 13:35:27;;;;;;;7.05;3.53;;;;;;;13.03;64.34;101650.41;4999460;28;20453;-54
2023/10/17 13:37:52;;;;;;;3.92;3.10;;;;;;;13.08;63.35;101652.75;5003822;28;20132;-55